createdAt,value
2018-07-21T00:00:12.345Z,9.07
2018-07-21T00:02:46.522Z,8.40
2018-07-21T00:05:26.014Z,10.03
2018-07-21T00:08:00.840Z,7.50
2018-07-21T00:10:35.613Z,8.85
2018-07-21T00:13:09.828Z,13.37
2018-07-21T00:15:44.051Z,8.70
2018-07-21T00:18:18.222Z,11.23
2018-07-21T00:20:52.390Z,9.93
2018-07-21T00:23:27.574Z,9.20
2018-07-21T00:26:01.708Z,8.78
2018-07-21T00:28:36.449Z,7.85
2018-07-21T00:31:11.656Z,8.83
2018-07-21T00:33:45.836Z,11.10
2018-07-21T00:36:20.044Z,10.50
2018-07-21T00:38:54.880Z,14.83
2018-07-21T00:41:29.124Z,7.83
2018-07-21T00:44:03.869Z,9.90
2018-07-21T00:46:39.028Z,10.17
2018-07-21T00:49:13.195Z,9.73
2018-07-21T00:51:48.371Z,7.67
2018-07-21T00:54:22.528Z,7.23
2018-07-21T00:56:56.202Z,7.73
2018-07-21T00:59:30.405Z,9.17
2018-07-21T01:02:05.018Z,8.80
2018-07-21T01:04:39.208Z,6.50
2018-07-21T01:07:13.456Z,8.43
2018-07-21T01:09:47.859Z,9.67
2018-07-21T01:12:22.003Z,10.70
2018-07-21T01:14:56.213Z,9.83
2018-07-21T01:17:30.732Z,11.73
2018-07-21T01:20:05.288Z,10.03
2018-07-21T01:22:39.990Z,11.60
2018-07-21T01:25:15.438Z,8.27
2018-07-21T01:27:49.604Z,8.93
2018-07-21T01:30:23.776Z,8.10
2018-07-21T01:32:57.432Z,6.77
2018-07-21T01:35:31.633Z,9.73
2018-07-21T01:38:05.800Z,7.30
2018-07-21T01:40:40.009Z,6.43
2018-07-21T01:43:14.316Z,6.60
2018-07-21T01:45:49.580Z,9.83
2018-07-21T01:48:23.254Z,9.33
2018-07-21T01:50:57.444Z,11.40
2018-07-21T01:53:32.676Z,9.43
2018-07-21T01:56:07.886Z,8.13
2018-07-21T01:58:42.025Z,12.53
2018-07-21T02:01:16.188Z,9.00
2018-07-21T02:03:50.854Z,8.93
2018-07-21T02:06:26.007Z,10.07
2018-07-21T02:09:00.159Z,10.03
2018-07-21T02:11:34.861Z,11.47
2018-07-21T02:14:10.105Z,9.20
2018-07-21T02:16:44.320Z,16.53
2018-07-21T02:19:18.461Z,9.47
2018-07-21T02:21:52.695Z,10.10
2018-07-21T02:24:27.904Z,6.33
2018-07-21T02:27:02.365Z,6.50
2018-07-21T02:29:36.242Z,6.63
2018-07-21T02:32:10.535Z,6.37
2018-07-21T02:34:44.824Z,8.60
2018-07-21T02:37:19.021Z,9.13
2018-07-21T02:39:53.192Z,6.93
2018-07-21T02:42:26.895Z,9.60
2018-07-21T02:45:00.550Z,12.07
2018-07-21T02:47:34.834Z,11.63
2018-07-21T02:50:09.003Z,11.90
2018-07-21T02:52:44.201Z,9.40
2018-07-21T02:55:18.361Z,12.13
2018-07-21T02:57:52.075Z,10.37
2018-07-21T03:00:25.723Z,13.97
2018-07-21T03:03:00.007Z,12.83
2018-07-21T03:05:34.144Z,13.50
2018-07-21T03:08:08.332Z,10.00
2018-07-21T03:10:42.481Z,10.83
2018-07-21T03:13:16.690Z,11.00
2018-07-21T03:15:50.825Z,13.00
2018-07-21T03:18:26.003Z,12.07
2018-07-21T03:21:01.177Z,13.67
2018-07-21T03:23:36.335Z,13.30
2018-07-21T03:26:10.476Z,9.17
2018-07-21T03:28:44.158Z,17.07
2018-07-21T03:31:18.327Z,13.10
2018-07-21T03:33:52.587Z,13.50
2018-07-21T03:36:44.236Z,12.10
2018-07-21T03:39:18.458Z,12.77
2018-07-21T03:41:52.664Z,13.43
2018-07-21T03:44:27.872Z,11.00
2018-07-21T03:47:02.025Z,12.37
2018-07-21T03:49:36.241Z,12.00
2018-07-21T03:52:10.399Z,14.23
2018-07-21T03:54:45.269Z,12.63
2018-07-21T03:57:19.981Z,18.02
2018-07-21T03:59:54.768Z,18.37
2018-07-21T04:02:29.484Z,16.35
2018-07-21T04:05:03.761Z,15.35
2018-07-21T04:07:38.716Z,6.35
2018-07-21T04:10:13.509Z,9.90
2018-07-21T04:12:49.237Z,8.20
2018-07-21T04:15:23.990Z,7.47
2018-07-21T04:17:58.700Z,10.00
2018-07-21T04:20:33.496Z,10.32
2018-07-21T04:23:08.245Z,7.58
2018-07-21T04:25:42.994Z,9.03
2018-07-21T04:28:17.725Z,6.17
2018-07-21T04:30:52.629Z,9.10
2018-07-21T04:33:27.350Z,9.30
2018-07-21T04:36:03.146Z,6.72
2018-07-21T04:38:37.917Z,11.35
2018-07-21T04:41:12.696Z,8.98
2018-07-21T04:43:47.421Z,8.58
2018-07-21T04:46:22.203Z,8.98
2018-07-21T04:48:56.903Z,8.90
2018-07-21T04:51:31.640Z,8.48
2018-07-21T04:54:05.888Z,9.45
2018-07-21T04:56:40.615Z,9.90
2018-07-21T04:59:16.429Z,8.78
2018-07-21T05:01:51.157Z,7.05
2018-07-21T05:04:25.936Z,5.42
2018-07-21T05:07:00.681Z,7.12
2018-07-21T05:09:36.460Z,6.53
2018-07-21T05:12:11.424Z,9.63
2018-07-21T05:14:46.181Z,7.25
2018-07-21T05:17:20.620Z,6.70
2018-07-21T05:19:54.610Z,7.90
2018-07-21T05:22:29.052Z,6.03
2018-07-21T05:25:03.575Z,5.90
2018-07-21T05:27:38.040Z,5.03
2018-07-21T05:30:12.863Z,6.53
2018-07-21T05:32:47.317Z,6.17
2018-07-21T05:35:22.805Z,6.37
2018-07-21T05:37:57.269Z,7.43
2018-07-21T05:40:31.770Z,5.80
2018-07-21T05:43:06.192Z,5.43
2018-07-21T05:45:40.144Z,5.47
2018-07-21T05:48:14.102Z,8.00
2018-07-21T05:50:48.591Z,6.30
2018-07-21T05:53:22.983Z,6.20
2018-07-21T05:55:57.954Z,6.07
2018-07-21T05:58:32.389Z,5.80
2018-07-21T06:01:06.860Z,7.17
2018-07-21T06:03:41.268Z,5.20
2018-07-21T06:06:15.774Z,6.13
2018-07-21T06:08:50.228Z,3.70
2018-07-21T06:11:24.218Z,3.97
2018-07-21T06:13:58.645Z,3.40
2018-07-21T06:16:32.652Z,4.40
2018-07-21T06:19:06.577Z,3.47
2018-07-21T06:21:42.893Z,3.37
2018-07-21T06:24:17.340Z,2.83
2018-07-21T06:26:51.334Z,4.07
2018-07-21T06:29:25.790Z,4.90
2018-07-21T06:32:00.286Z,5.57
2018-07-21T06:34:34.717Z,4.93
2018-07-21T06:37:08.687Z,4.00
2018-07-21T06:39:43.145Z,3.87
2018-07-21T06:42:17.713Z,5.13
2018-07-21T06:44:52.120Z,5.03
2018-07-21T06:47:27.624Z,5.23
2018-07-21T06:50:02.113Z,5.40
2018-07-21T06:52:36.601Z,4.73
2018-07-21T06:55:14.782Z,3.97
2018-07-21T06:57:49.250Z,2.63
2018-07-21T07:00:23.680Z,2.77
2018-07-21T07:02:58.172Z,6.20
2018-07-21T07:05:32.668Z,3.57
2018-07-21T07:08:07.262Z,3.20
2018-07-21T07:10:42.717Z,3.33
2018-07-21T07:13:17.650Z,4.03
2018-07-21T07:15:52.090Z,3.23
2018-07-21T07:18:26.657Z,2.67
2018-07-21T07:21:01.141Z,3.67
2018-07-21T07:23:35.630Z,3.40
2018-07-21T07:26:10.057Z,4.87
2018-07-21T07:28:44.508Z,5.00
2018-07-21T07:31:18.983Z,4.57
2018-07-21T07:33:52.966Z,4.50
2018-07-21T07:36:27.383Z,2.90
2018-07-21T07:39:01.866Z,5.53
2018-07-21T07:41:36.340Z,2.77
2018-07-21T07:44:10.891Z,5.70
2018-07-21T07:46:45.300Z,6.60
2018-07-21T07:49:19.805Z,4.63
2018-07-21T07:51:54.214Z,4.57
2018-07-21T07:54:28.696Z,4.90
2018-07-21T07:57:03.132Z,3.73
2018-07-21T07:59:37.574Z,6.00
2018-07-21T08:02:13.120Z,6.83
2018-07-21T08:04:47.570Z,3.90
2018-07-21T08:07:22.521Z,4.23
2018-07-21T08:09:56.965Z,5.13
2018-07-21T08:12:31.359Z,6.33
2018-07-21T08:15:05.913Z,4.10
2018-07-21T08:17:40.320Z,5.87
2018-07-21T08:20:14.831Z,3.23
2018-07-21T08:22:49.232Z,3.03
2018-07-21T08:25:23.721Z,4.00
2018-07-21T08:27:57.802Z,4.20
2018-07-21T08:30:32.681Z,5.63
2018-07-21T08:33:07.178Z,2.97
2018-07-21T08:35:42.146Z,5.27
2018-07-21T08:38:20.016Z,6.60
2018-07-21T08:40:55.051Z,4.30
2018-07-21T08:43:28.974Z,7.43
2018-07-21T08:46:03.656Z,3.27
2018-07-21T08:48:38.082Z,4.17
2018-07-21T08:51:12.566Z,3.97
2018-07-21T08:53:47.026Z,5.50
2018-07-21T08:56:21.499Z,3.97
2018-07-21T08:58:55.891Z,3.40
2018-07-21T09:01:30.376Z,3.10
2018-07-21T09:04:04.797Z,3.77
2018-07-21T09:06:40.331Z,2.73
2018-07-21T09:09:15.780Z,4.50
2018-07-21T09:11:50.677Z,6.87
2018-07-21T09:14:26.148Z,4.30
2018-07-21T09:17:00.646Z,3.10
2018-07-21T09:19:35.080Z,3.77
2018-07-21T09:22:09.589Z,2.80
2018-07-21T09:24:44.000Z,5.67
2018-07-21T09:27:18.500Z,3.77
2018-07-21T09:29:52.954Z,4.47
2018-07-21T09:32:27.412Z,5.40
2018-07-21T09:35:01.354Z,5.67
2018-07-21T09:37:35.860Z,3.43
2018-07-21T09:40:10.588Z,5.43
2018-07-21T09:42:45.115Z,4.20
2018-07-21T09:45:19.605Z,6.60
2018-07-21T09:47:54.578Z,5.37
2018-07-21T09:50:29.055Z,4.60
2018-07-21T09:53:03.010Z,3.67
2018-07-21T09:55:37.994Z,3.90
2018-07-21T09:58:12.603Z,3.50
2018-07-21T10:00:52.234Z,4.30
2018-07-21T10:03:27.703Z,4.13
2018-07-21T10:06:02.203Z,5.10
2018-07-21T10:08:36.660Z,3.37
2018-07-21T10:11:11.109Z,3.53
2018-07-21T10:13:45.543Z,4.10
2018-07-21T10:16:19.952Z,5.90
2018-07-21T10:18:54.504Z,3.80
2018-07-21T10:21:28.909Z,4.53
2018-07-21T10:24:08.707Z,7.20
2018-07-21T10:26:48.360Z,4.00
2018-07-21T10:29:22.905Z,5.53
2018-07-21T10:31:57.312Z,4.07
2018-07-21T10:34:31.769Z,4.00
2018-07-21T10:37:07.191Z,4.20
2018-07-21T10:39:41.651Z,4.70
2018-07-21T10:42:16.076Z,4.77
2018-07-21T10:44:50.620Z,7.70
2018-07-21T10:47:25.037Z,4.50
2018-07-21T10:49:59.510Z,5.90
2018-07-21T10:52:38.631Z,5.20
2018-07-21T10:55:13.184Z,4.53
2018-07-21T10:57:47.588Z,5.80
2018-07-21T11:00:22.089Z,4.70
2018-07-21T11:02:57.704Z,5.33
2018-07-21T11:05:33.199Z,4.57
2018-07-21T11:08:07.659Z,4.77
2018-07-21T11:10:42.416Z,5.07
2018-07-21T11:13:20.399Z,3.80
2018-07-21T11:16:10.536Z,6.03
2018-07-21T11:18:49.066Z,5.07
2018-07-21T11:21:28.807Z,6.23
2018-07-21T11:24:07.534Z,5.60
2018-07-21T11:26:42.724Z,5.27
2018-07-21T11:32:01.151Z,4.70
2018-07-21T11:34:36.589Z,5.77
2018-07-21T11:37:53.970Z,6.67
2018-07-21T11:40:38.012Z,6.00
2018-07-21T11:43:19.973Z,6.53
2018-07-21T11:45:54.409Z,6.67
2018-07-21T11:48:29.166Z,5.93
2018-07-21T11:51:03.715Z,4.27
2018-07-21T11:53:49.262Z,4.77
2018-07-21T11:56:29.021Z,4.97
2018-07-21T11:59:06.613Z,4.73
2018-07-21T12:01:41.046Z,6.97
2018-07-21T12:04:15.483Z,3.97
2018-07-21T12:06:51.006Z,5.07
2018-07-21T12:09:26.493Z,6.07
2018-07-21T12:12:01.921Z,4.03
2018-07-21T12:14:46.500Z,6.20
2018-07-21T12:17:26.236Z,4.60
2018-07-21T12:20:01.720Z,6.33
2018-07-21T12:22:36.172Z,4.73
2018-07-21T12:25:10.638Z,5.30
2018-07-21T12:27:46.080Z,5.40
2018-07-21T12:30:20.672Z,6.13
2018-07-21T12:32:55.094Z,6.83
2018-07-21T12:35:29.521Z,4.73
2018-07-21T12:38:03.951Z,4.50
2018-07-21T12:40:38.409Z,6.67
2018-07-21T12:43:13.390Z,5.10
2018-07-21T12:45:47.854Z,9.50
2018-07-21T12:48:22.277Z,5.27
2018-07-21T12:50:56.209Z,7.10
2018-07-21T12:53:30.706Z,6.27
2018-07-21T12:56:04.783Z,4.57
2018-07-21T12:58:39.255Z,8.13
2018-07-21T13:01:13.692Z,5.10
2018-07-21T13:03:48.221Z,5.93
2018-07-21T13:06:22.721Z,5.90
2018-07-21T13:08:57.229Z,5.37
2018-07-21T13:11:31.637Z,7.70
2018-07-21T13:14:06.158Z,5.80
2018-07-21T13:16:40.651Z,6.80
2018-07-21T13:19:15.100Z,5.60
2018-07-21T13:21:49.093Z,5.47
2018-07-21T13:24:24.515Z,6.07
2018-07-21T13:26:59.970Z,5.53
2018-07-21T13:29:34.392Z,8.07
2018-07-21T13:32:08.891Z,5.43
2018-07-21T13:34:43.319Z,6.30
2018-07-21T13:37:18.010Z,8.37
2018-07-21T13:39:53.589Z,5.40
2018-07-21T13:42:29.042Z,7.03
2018-07-21T13:45:03.483Z,6.40
2018-07-21T13:47:37.509Z,6.50
2018-07-21T13:50:12.290Z,6.07
2018-07-21T13:52:46.756Z,4.97
2018-07-21T13:55:21.169Z,5.67
2018-07-21T13:57:55.650Z,6.23
2018-07-21T14:00:30.048Z,5.83
2018-07-21T14:03:04.529Z,9.53
2018-07-21T14:05:38.993Z,6.37
2018-07-21T14:08:13.396Z,4.93
2018-07-21T14:10:48.183Z,6.12
2018-07-21T14:13:22.084Z,5.23
2018-07-21T14:15:56.050Z,5.43
2018-07-21T14:18:30.625Z,5.50
2018-07-21T14:21:05.385Z,5.50
2018-07-21T14:23:40.075Z,8.65
2018-07-21T14:26:14.025Z,5.83
2018-07-21T14:28:48.454Z,7.67
2018-07-21T14:31:23.208Z,7.00
2018-07-21T14:33:57.932Z,4.97
2018-07-21T14:36:33.743Z,6.12
2018-07-21T14:39:10.194Z,4.70
2018-07-21T14:41:45.787Z,6.40
2018-07-21T14:44:20.790Z,5.93
2018-07-21T14:46:55.226Z,4.97
2018-07-21T14:49:29.944Z,5.08
2018-07-21T14:52:04.667Z,4.20
2018-07-21T14:54:39.161Z,5.33
2018-07-21T14:57:15.019Z,7.95
2018-07-21T14:59:49.780Z,5.30
2018-07-21T15:02:24.511Z,5.37
2018-07-21T15:04:59.319Z,7.15
2018-07-21T15:07:33.762Z,4.67
2018-07-21T15:10:08.533Z,6.67
2018-07-21T15:12:42.782Z,4.67
2018-07-21T15:15:17.535Z,8.73
2018-07-21T15:17:52.323Z,7.37
2018-07-21T15:20:27.193Z,7.95
2018-07-21T15:23:01.902Z,6.30
2018-07-21T15:25:37.623Z,5.75
2018-07-21T15:28:12.335Z,6.25
2018-07-21T15:30:46.613Z,7.72
2018-07-21T15:33:21.339Z,5.22
2018-07-21T15:35:56.111Z,7.28
2018-07-21T15:38:30.812Z,5.42
2018-07-21T15:41:05.560Z,5.47
2018-07-21T15:43:41.266Z,5.75
2018-07-21T15:46:16.024Z,4.87
2018-07-21T15:48:50.242Z,5.85
2018-07-21T15:51:24.482Z,5.33
2018-07-21T15:53:59.221Z,5.90
2018-07-21T15:56:33.973Z,5.45
2018-07-21T15:59:08.672Z,6.60
2018-07-21T16:01:43.457Z,5.20
2018-07-21T16:04:17.697Z,5.55
2018-07-21T16:06:52.527Z,7.42
2018-07-21T16:09:27.260Z,5.60
2018-07-21T16:12:02.021Z,6.35
2018-07-21T16:14:36.718Z,7.37
2018-07-21T16:17:11.487Z,7.62
2018-07-21T16:19:46.156Z,4.83
2018-07-21T16:22:22.007Z,5.92
2018-07-21T16:24:56.992Z,5.55
2018-07-21T16:27:32.786Z,8.98
2018-07-21T16:30:08.536Z,5.35
2018-07-21T16:32:43.254Z,7.65
2018-07-21T16:35:17.984Z,4.20
2018-07-21T16:37:52.743Z,5.92
2018-07-21T16:40:27.469Z,5.53
2018-07-21T16:43:02.207Z,6.08
2018-07-21T16:45:36.948Z,4.42
2018-07-21T16:48:12.700Z,4.75
2018-07-21T16:50:48.449Z,5.17
2018-07-21T16:53:24.211Z,3.95
2018-07-21T16:55:58.925Z,6.33
2018-07-21T16:58:33.663Z,5.78
2018-07-21T17:01:08.910Z,5.67
2018-07-21T17:03:43.140Z,6.40
2018-07-21T17:06:17.852Z,5.20
2018-07-21T17:08:52.173Z,4.85
2018-07-21T17:11:26.422Z,6.72
2018-07-21T17:14:01.156Z,7.37
2018-07-21T17:16:36.953Z,5.33
2018-07-21T17:19:11.714Z,5.45
2018-07-21T17:21:46.584Z,5.53
2018-07-21T17:24:21.337Z,4.53
2018-07-21T17:26:56.040Z,5.65
2018-07-21T17:29:31.831Z,5.10
2018-07-21T17:32:06.789Z,8.45
2018-07-21T17:34:41.528Z,6.15
2018-07-21T17:37:16.279Z,4.80
2018-07-21T17:39:50.956Z,6.92
2018-07-21T17:42:25.731Z,3.95
2018-07-21T17:45:00.452Z,4.67
2018-07-21T17:47:35.169Z,5.20
2018-07-21T17:50:09.908Z,4.83
2018-07-21T17:52:44.636Z,5.17
2018-07-21T17:55:19.307Z,7.25
2018-07-21T17:57:54.027Z,4.97
2018-07-21T18:00:29.760Z,5.55
2018-07-21T18:03:04.535Z,5.17
2018-07-21T18:05:39.270Z,6.12
2018-07-21T18:08:15.001Z,5.72
2018-07-21T18:10:50.709Z,10.70
2018-07-21T18:13:24.977Z,6.67
2018-07-21T18:16:00.931Z,4.80
2018-07-21T18:18:35.669Z,5.47
2018-07-21T18:21:10.350Z,7.62
2018-07-21T18:23:45.084Z,5.47
2018-07-21T18:26:19.815Z,5.70
2018-07-21T18:28:54.555Z,7.62
2018-07-21T18:31:29.250Z,6.55
2018-07-21T18:34:05.061Z,7.05
2018-07-21T18:36:39.764Z,5.60
2018-07-21T18:39:14.510Z,5.03
2018-07-21T18:41:49.231Z,6.83
2018-07-21T18:44:25.037Z,5.90
2018-07-21T18:47:00.039Z,6.62
2018-07-21T18:49:35.327Z,8.20
2018-07-21T18:52:10.379Z,9.13
2018-07-21T18:54:45.287Z,10.30
2018-07-21T18:57:20.007Z,6.70
2018-07-21T18:59:54.748Z,8.15
2018-07-21T19:02:29.674Z,8.25
2018-07-21T19:05:04.438Z,9.93
2018-07-21T19:07:40.228Z,8.45
2018-07-21T19:10:14.962Z,7.53
2018-07-21T19:12:51.031Z,13.30
2018-07-21T19:15:31.041Z,19.02
2018-07-21T19:18:05.328Z,16.30
2018-07-21T19:20:46.069Z,9.08
2018-07-21T19:23:20.855Z,9.48
2018-07-21T19:26:00.701Z,10.40
2018-07-21T19:28:34.946Z,13.20
2018-07-21T19:31:09.649Z,8.73
2018-07-21T19:33:45.139Z,11.85
2018-07-21T19:36:21.224Z,10.93
2018-07-21T19:38:55.978Z,8.20
2018-07-21T19:42:03.586Z,7.72
2018-07-21T19:44:38.382Z,8.05
2018-07-21T19:47:13.154Z,7.03
2018-07-21T19:49:49.091Z,9.10
2018-07-21T19:52:23.829Z,9.73
2018-07-21T19:54:59.538Z,8.00
2018-07-21T19:57:34.245Z,7.72
2018-07-21T20:00:08.968Z,7.40
2018-07-21T20:02:43.728Z,7.78
2018-07-21T20:05:17.955Z,9.18
2018-07-21T20:07:52.680Z,8.53
2018-07-21T20:10:27.387Z,9.95
2018-07-21T20:13:02.106Z,8.73
2018-07-21T20:15:36.837Z,7.42
2018-07-21T20:18:11.549Z,8.95
2018-07-21T20:20:46.289Z,7.45
2018-07-21T20:23:21.017Z,8.50
2018-07-21T20:25:56.730Z,8.10
2018-07-21T20:28:31.440Z,9.28
2018-07-21T20:31:06.113Z,9.75
2018-07-21T20:33:41.080Z,8.00
2018-07-21T20:36:15.796Z,7.42
2018-07-21T20:38:50.639Z,7.85
2018-07-21T20:41:26.373Z,19.20
2018-07-21T20:44:01.555Z,8.50
2018-07-21T20:46:36.722Z,10.53
2018-07-21T20:49:10.956Z,12.60
2018-07-21T20:51:45.664Z,10.32
2018-07-21T20:54:19.953Z,6.60
2018-07-21T20:56:54.689Z,9.68
2018-07-21T20:59:29.443Z,11.55
2018-07-21T21:02:04.193Z,13.60
2018-07-21T21:04:38.923Z,10.68
2018-07-21T21:07:13.672Z,12.95
2018-07-21T21:09:48.393Z,10.03
2018-07-21T21:12:23.212Z,10.13
2018-07-21T21:14:58.039Z,8.33
2018-07-21T21:17:32.820Z,8.60
2018-07-21T21:20:07.089Z,10.30
2018-07-21T21:22:41.871Z,7.53
2018-07-21T21:25:17.740Z,6.60
2018-07-21T21:27:52.461Z,8.63
2018-07-21T21:30:27.146Z,9.43
2018-07-21T21:33:02.897Z,7.17
2018-07-21T21:35:37.612Z,10.30
2018-07-21T21:38:12.340Z,8.33
2018-07-21T21:40:48.072Z,9.25
2018-07-21T21:43:22.971Z,11.70
2018-07-21T21:45:57.692Z,11.40
2018-07-21T21:48:32.467Z,12.85
2018-07-21T21:51:07.224Z,16.52
2018-07-21T21:53:43.000Z,16.62
2018-07-21T21:56:17.733Z,14.85
2018-07-21T21:58:52.528Z,15.43
2018-07-21T22:01:27.545Z,18.60
2018-07-21T22:04:02.425Z,20.23
2018-07-21T22:06:37.890Z,15.60
2018-07-21T22:09:12.701Z,17.95
2018-07-21T22:11:47.485Z,16.37
2018-07-21T22:14:22.759Z,12.95
2018-07-21T22:16:57.693Z,17.75
2018-07-21T22:19:32.546Z,10.25
2018-07-21T22:22:07.301Z,11.03
2018-07-21T22:24:42.021Z,12.70
2018-07-21T22:27:16.732Z,12.82
2018-07-21T22:29:51.464Z,12.05
2018-07-21T22:32:26.215Z,13.60
2018-07-21T22:35:00.582Z,13.65
2018-07-21T22:37:35.397Z,10.88
2018-07-21T22:40:10.232Z,10.88
2018-07-21T22:42:45.020Z,13.35
2018-07-21T22:45:19.243Z,9.85
2018-07-21T22:47:54.041Z,11.28
2018-07-21T22:50:29.749Z,12.78
2018-07-21T22:53:05.585Z,9.73
2018-07-21T22:55:40.344Z,9.83
2018-07-21T22:58:16.108Z,10.45
2018-07-21T23:00:50.997Z,14.20
2018-07-21T23:03:25.775Z,12.75
2018-07-21T23:06:01.532Z,13.13
2018-07-21T23:08:37.269Z,15.55
2018-07-21T23:11:13.080Z,10.30
2018-07-21T23:13:47.780Z,12.93
2018-07-21T23:16:23.587Z,12.75
2018-07-21T23:18:58.288Z,14.50
2018-07-21T23:21:33.041Z,16.02
2018-07-21T23:24:07.813Z,12.73
2018-07-21T23:26:42.569Z,14.83
2018-07-21T23:29:17.265Z,17.25
2018-07-21T23:31:52.051Z,13.55
2018-07-21T23:34:26.903Z,13.32
2018-07-21T23:37:01.186Z,14.03
2018-07-21T23:39:36.917Z,10.70
2018-07-21T23:42:11.735Z,12.03
2018-07-21T23:44:46.416Z,12.15
2018-07-21T23:47:21.150Z,10.53
2018-07-21T23:49:55.869Z,12.90
2018-07-21T23:52:31.643Z,10.45
2018-07-21T23:55:08.320Z,10.82
2018-07-21T23:57:43.051Z,10.23
